sensor_id;sensor_type;location;lat;lon;timestamp;pressure;altitude;pressure_sealevel;temperature;humidity
24336;BME280;33098;52.400;16.880;2022-09-28T00:00:31;98992.33;;;10.50;96.05
24336;BME280;33098;52.400;16.880;2022-09-28T00:03:21;98986.11;;;10.45;95.65
24336;BME280;33098;52.400;16.880;2022-09-28T00:05:48;98980.05;;;10.35;95.62
24336;BME280;33098;52.400;16.880;2022-09-28T00:08:15;98980.95;;;10.35;95.86
24336;BME280;33098;52.400;16.880;2022-09-28T00:10:43;98974.36;;;10.25;95.57
24336;BME280;33098;52.400;16.880;2022-09-28T00:13:14;98974.81;;;10.10;95.45
24336;BME280;33098;52.400;16.880;2022-09-28T00:15:44;98970.47;;;10.08;95.83
24336;BME280;33098;52.400;16.880;2022-09-28T00:18:13;98975.52;;;10.11;96.09
24336;BME280;33098;52.400;16.880;2022-09-28T00:20:42;98971.05;;;10.14;96.16
24336;BME280;33098;52.400;16.880;2022-09-28T00:23:15;98967.45;;;10.13;96.12
24336;BME280;33098;52.400;16.880;2022-09-28T00:25:44;98968.58;;;10.02;95.69
24336;BME280;33098;52.400;16.880;2022-09-28T00:28:13;98968.25;;;9.96;95.95
24336;BME280;33098;52.400;16.880;2022-09-28T00:30:42;98968.96;;;9.93;95.87
24336;BME280;33098;52.400;16.880;2022-09-28T00:33:12;98971.11;;;9.94;95.97
24336;BME280;33098;52.400;16.880;2022-09-28T00:35:39;98971.52;;;9.97;96.05
24336;BME280;33098;52.400;16.880;2022-09-28T00:38:09;98963.89;;;9.88;95.87
24336;BME280;33098;52.400;16.880;2022-09-28T00:40:36;98965.48;;;9.85;96.03
24336;BME280;33098;52.400;16.880;2022-09-28T00:43:19;98964.41;;;9.76;95.73
24336;BME280;33098;52.400;16.880;2022-09-28T00:49:16;98954.38;;;9.64;96.19
24336;BME280;33098;52.400;16.880;2022-09-28T00:51:45;98949.50;;;9.54;95.79
24336;BME280;33098;52.400;16.880;2022-09-28T00:54:18;98959.29;;;9.54;96.07
24336;BME280;33098;52.400;16.880;2022-09-28T00:56:46;98956.05;;;9.49;96.21
24336;BME280;33098;52.400;16.880;2022-09-28T00:59:16;98955.46;;;9.53;96.42
24336;BME280;33098;52.400;16.880;2022-09-28T01:01:43;98962.22;;;9.55;96.48
24336;BME280;33098;52.400;16.880;2022-09-28T01:04:14;98960.19;;;9.54;96.44
24336;BME280;33098;52.400;16.880;2022-09-28T01:06:43;98958.45;;;9.52;96.38
24336;BME280;33098;52.400;16.880;2022-09-28T01:09:12;98953.04;;;9.42;96.16
24336;BME280;33098;52.400;16.880;2022-09-28T01:11:43;98953.84;;;9.36;96.18
24336;BME280;33098;52.400;16.880;2022-09-28T01:14:13;98955.21;;;9.36;96.32
24336;BME280;33098;52.400;16.880;2022-09-28T01:17:02;98951.57;;;9.26;96.11
24336;BME280;33098;52.400;16.880;2022-09-28T01:23:06;98946.85;;;9.29;96.58
24336;BME280;33098;52.400;16.880;2022-09-28T01:28:46;98945.64;;;9.34;96.61
24336;BME280;33098;52.400;16.880;2022-09-28T01:31:20;98944.77;;;9.41;96.65
24336;BME280;33098;52.400;16.880;2022-09-28T01:34:13;98943.95;;;9.41;96.31
24336;BME280;33098;52.400;16.880;2022-09-28T01:36:48;98946.19;;;9.32;95.99
24336;BME280;33098;52.400;16.880;2022-09-28T01:39:27;98948.02;;;9.31;96.00
24336;BME280;33098;52.400;16.880;2022-09-28T01:42:01;98945.38;;;9.28;95.98
24336;BME280;33098;52.400;16.880;2022-09-28T01:44:41;98943.29;;;9.22;95.82
24336;BME280;33098;52.400;16.880;2022-09-28T01:47:20;98943.55;;;9.13;95.73
24336;BME280;33098;52.400;16.880;2022-09-28T01:50:01;98944.89;;;9.14;95.92
24336;BME280;33098;52.400;16.880;2022-09-28T01:52:44;98943.55;;;9.06;95.73
24336;BME280;33098;52.400;16.880;2022-09-28T01:55:33;98941.00;;;9.08;96.00
24336;BME280;33098;52.400;16.880;2022-09-28T01:58:21;98940.34;;;9.14;96.23
24336;BME280;33098;52.400;16.880;2022-09-28T02:00:58;98943.40;;;9.06;95.80
24336;BME280;33098;52.400;16.880;2022-09-28T02:03:55;98944.45;;;8.93;95.64
24336;BME280;33098;52.400;16.880;2022-09-28T02:06:42;98950.92;;;8.90;95.85
24336;BME280;33098;52.400;16.880;2022-09-28T02:09:20;98955.17;;;8.99;96.31
24336;BME280;33098;52.400;16.880;2022-09-28T02:11:56;98960.95;;;9.02;96.09
24336;BME280;33098;52.400;16.880;2022-09-28T02:14:26;98962.98;;;8.97;95.94
24336;BME280;33098;52.400;16.880;2022-09-28T02:16:55;98966.02;;;8.96;95.97
24336;BME280;33098;52.400;16.880;2022-09-28T02:19:31;98964.39;;;8.93;95.93
24336;BME280;33098;52.400;16.880;2022-09-28T02:24:58;98973.38;;;8.93;96.06
24336;BME280;33098;52.400;16.880;2022-09-28T02:27:53;98974.92;;;8.87;95.74
24336;BME280;33098;52.400;16.880;2022-09-28T02:30:32;98979.74;;;8.73;95.47
24336;BME280;33098;52.400;16.880;2022-09-28T02:33:08;98983.03;;;8.71;95.72
24336;BME280;33098;52.400;16.880;2022-09-28T02:35:42;98978.69;;;8.77;96.06
24336;BME280;33098;52.400;16.880;2022-09-28T02:38:13;98979.55;;;8.83;96.12
24336;BME280;33098;52.400;16.880;2022-09-28T02:40:45;98979.52;;;8.81;96.12
24336;BME280;33098;52.400;16.880;2022-09-28T02:43:24;98975.30;;;8.87;96.23
24336;BME280;33098;52.400;16.880;2022-09-28T03:02:18;98977.48;;;8.73;96.50
24336;BME280;33098;52.400;16.880;2022-09-28T03:05:13;98971.57;;;8.81;96.56
24336;BME280;33098;52.400;16.880;2022-09-28T03:07:45;98964.66;;;8.74;96.16
24336;BME280;33098;52.400;16.880;2022-09-28T03:12:53;98968.45;;;8.61;95.91
24336;BME280;33098;52.400;16.880;2022-09-28T03:15:30;98961.63;;;8.55;95.67
24336;BME280;33098;52.400;16.880;2022-09-28T03:17:58;98960.34;;;8.59;95.99
24336;BME280;33098;52.400;16.880;2022-09-28T03:20:26;98951.90;;;8.70;96.30
24336;BME280;33098;52.400;16.880;2022-09-28T03:23:01;98948.38;;;8.74;96.24
24336;BME280;33098;52.400;16.880;2022-09-28T03:25:28;98946.66;;;8.75;96.07
24336;BME280;33098;52.400;16.880;2022-09-28T03:27:58;98950.23;;;8.78;96.00
24336;BME280;33098;52.400;16.880;2022-09-28T03:30:31;98944.39;;;8.65;95.51
24336;BME280;33098;52.400;16.880;2022-09-28T03:33:01;98947.20;;;8.56;95.41
24336;BME280;33098;52.400;16.880;2022-09-28T03:35:31;98951.95;;;8.51;95.48
24336;BME280;33098;52.400;16.880;2022-09-28T03:38:05;98948.72;;;8.44;95.31
24336;BME280;33098;52.400;16.880;2022-09-28T03:40:34;98949.89;;;8.48;95.74
24336;BME280;33098;52.400;16.880;2022-09-28T03:43:13;98952.39;;;8.54;95.88
24336;BME280;33098;52.400;16.880;2022-09-28T03:45:50;98953.13;;;8.51;95.63
24336;BME280;33098;52.400;16.880;2022-09-28T03:48:37;98954.23;;;8.41;95.45
24336;BME280;33098;52.400;16.880;2022-09-28T03:51:05;98952.80;;;8.28;95.27
24336;BME280;33098;52.400;16.880;2022-09-28T03:53:36;98949.61;;;8.26;95.50
24336;BME280;33098;52.400;16.880;2022-09-28T03:56:26;98945.85;;;8.27;95.77
24336;BME280;33098;52.400;16.880;2022-09-28T03:59:01;98948.09;;;8.25;95.79
24336;BME280;33098;52.400;16.880;2022-09-28T04:01:29;98949.59;;;8.28;95.98
24336;BME280;33098;52.400;16.880;2022-09-28T04:03:59;98947.88;;;8.31;96.11
24336;BME280;33098;52.400;16.880;2022-09-28T04:06:26;98950.50;;;8.30;96.02
24336;BME280;33098;52.400;16.880;2022-09-28T04:08:59;98947.75;;;8.25;95.72
24336;BME280;33098;52.400;16.880;2022-09-28T04:11:28;98951.55;;;8.13;95.41
24336;BME280;33098;52.400;16.880;2022-09-28T04:13:57;98951.16;;;8.08;95.55
24336;BME280;33098;52.400;16.880;2022-09-28T04:16:24;98953.08;;;8.04;95.54
24336;BME280;33098;52.400;16.880;2022-09-28T04:19:01;98951.66;;;8.04;95.75
24336;BME280;33098;52.400;16.880;2022-09-28T04:21:49;98953.75;;;8.02;95.81
24336;BME280;33098;52.400;16.880;2022-09-28T04:24:23;98947.94;;;8.08;96.08
24336;BME280;33098;52.400;16.880;2022-09-28T04:26:51;98953.39;;;8.06;95.94
24336;BME280;33098;52.400;16.880;2022-09-28T04:29:19;98957.55;;;8.05;95.95
24336;BME280;33098;52.400;16.880;2022-09-28T04:31:54;98954.13;;;8.15;96.34
24336;BME280;33098;52.400;16.880;2022-09-28T04:34:37;98956.52;;;8.24;96.45
24336;BME280;33098;52.400;16.880;2022-09-28T04:37:04;98960.70;;;8.26;96.16
24336;BME280;33098;52.400;16.880;2022-09-28T04:39:31;98954.86;;;8.13;95.81
24336;BME280;33098;52.400;16.880;2022-09-28T04:41:58;98954.88;;;8.03;95.75
24336;BME280;33098;52.400;16.880;2022-09-28T04:44:28;98955.04;;;8.06;96.03
24336;BME280;33098;52.400;16.880;2022-09-28T04:46:59;98949.95;;;8.09;96.28
24336;BME280;33098;52.400;16.880;2022-09-28T04:49:31;98947.30;;;8.18;96.51
24336;BME280;33098;52.400;16.880;2022-09-28T04:52:18;98951.94;;;8.22;96.27
24336;BME280;33098;52.400;16.880;2022-09-28T04:54:48;98954.01;;;8.19;96.08
24336;BME280;33098;52.400;16.880;2022-09-28T04:57:16;98951.48;;;8.13;95.88
24336;BME280;33098;52.400;16.880;2022-09-28T04:59:43;98954.36;;;8.26;96.43
24336;BME280;33098;52.400;16.880;2022-09-28T05:02:18;98947.25;;;8.37;96.34
24336;BME280;33098;52.400;16.880;2022-09-28T05:05:07;98944.05;;;8.34;95.95
24336;BME280;33098;52.400;16.880;2022-09-28T05:07:57;98943.14;;;8.25;95.45
24336;BME280;33098;52.400;16.880;2022-09-28T05:10:24;98943.16;;;8.17;95.30
24336;BME280;33098;52.400;16.880;2022-09-28T05:12:55;98938.76;;;8.13;95.36
24336;BME280;33098;52.400;16.880;2022-09-28T05:15:28;98941.20;;;8.19;95.64
24336;BME280;33098;52.400;16.880;2022-09-28T05:17:57;98940.02;;;8.30;96.01
24336;BME280;33098;52.400;16.880;2022-09-28T05:20:39;98936.71;;;8.31;95.75
24336;BME280;33098;52.400;16.880;2022-09-28T05:23:08;98939.80;;;8.25;95.63
24336;BME280;33098;52.400;16.880;2022-09-28T05:25:37;98940.95;;;8.20;95.61
24336;BME280;33098;52.400;16.880;2022-09-28T05:28:21;98943.56;;;8.23;95.89
24336;BME280;33098;52.400;16.880;2022-09-28T05:31:18;98938.58;;;8.32;96.41
24336;BME280;33098;52.400;16.880;2022-09-28T05:34:09;98939.98;;;8.46;96.69
24336;BME280;33098;52.400;16.880;2022-09-28T05:36:36;98941.60;;;8.59;96.90
24336;BME280;33098;52.400;16.880;2022-09-28T05:39:07;98942.08;;;8.71;96.92
24336;BME280;33098;52.400;16.880;2022-09-28T05:41:35;98946.12;;;8.75;96.76
24336;BME280;33098;52.400;16.880;2022-09-28T05:44:06;98948.64;;;8.88;96.92
24336;BME280;33098;52.400;16.880;2022-09-28T05:46:34;98946.11;;;8.90;96.51
24336;BME280;33098;52.400;16.880;2022-09-28T05:49:02;98942.31;;;8.89;96.29
24336;BME280;33098;52.400;16.880;2022-09-28T05:51:31;98941.71;;;8.86;95.95
24336;BME280;33098;52.400;16.880;2022-09-28T05:54:01;98941.75;;;8.77;95.68
24336;BME280;33098;52.400;16.880;2022-09-28T05:56:36;98940.63;;;8.70;95.60
24336;BME280;33098;52.400;16.880;2022-09-28T05:59:17;98943.88;;;8.67;95.68
24336;BME280;33098;52.400;16.880;2022-09-28T06:01:44;98944.63;;;8.63;95.67
24336;BME280;33098;52.400;16.880;2022-09-28T06:04:19;98943.48;;;8.62;95.77
24336;BME280;33098;52.400;16.880;2022-09-28T06:07:00;98941.11;;;8.72;96.24
24336;BME280;33098;52.400;16.880;2022-09-28T06:09:29;98940.95;;;8.74;96.06
24336;BME280;33098;52.400;16.880;2022-09-28T06:12:25;98939.66;;;8.78;96.06
24336;BME280;33098;52.400;16.880;2022-09-28T06:14:58;98932.52;;;8.86;96.34
24336;BME280;33098;52.400;16.880;2022-09-28T06:17:29;98931.33;;;9.00;96.65
24336;BME280;33098;52.400;16.880;2022-09-28T06:20:18;98929.92;;;9.13;96.58
24336;BME280;33098;52.400;16.880;2022-09-28T06:23:09;98931.02;;;9.13;96.35
24336;BME280;33098;52.400;16.880;2022-09-28T06:25:37;98928.98;;;9.07;95.96
24336;BME280;33098;52.400;16.880;2022-09-28T06:28:12;98930.83;;;9.08;96.07
24336;BME280;33098;52.400;16.880;2022-09-28T06:30:42;98922.98;;;9.17;96.29
24336;BME280;33098;52.400;16.880;2022-09-28T06:33:13;98926.73;;;9.28;96.34
24336;BME280;33098;52.400;16.880;2022-09-28T06:35:40;98926.05;;;9.29;96.07
24336;BME280;33098;52.400;16.880;2022-09-28T06:38:08;98924.38;;;9.36;96.17
24336;BME280;33098;52.400;16.880;2022-09-28T06:40:35;98923.89;;;9.43;96.11
24336;BME280;33098;52.400;16.880;2022-09-28T06:43:09;98929.11;;;9.44;95.78
24336;BME280;33098;52.400;16.880;2022-09-28T06:45:54;98929.45;;;9.51;95.81
24336;BME280;33098;52.400;16.880;2022-09-28T06:48:40;98930.98;;;9.54;95.51
24336;BME280;33098;52.400;16.880;2022-09-28T06:51:11;98927.68;;;9.51;95.24
24336;BME280;33098;52.400;16.880;2022-09-28T06:53:56;98931.65;;;9.56;95.33
24336;BME280;33098;52.400;16.880;2022-09-28T06:56:41;98935.05;;;9.70;95.72
24336;BME280;33098;52.400;16.880;2022-09-28T06:59:09;98938.27;;;9.84;95.69
24336;BME280;33098;52.400;16.880;2022-09-28T07:01:37;98941.56;;;9.88;95.21
24336;BME280;33098;52.400;16.880;2022-09-28T07:04:16;98938.56;;;9.83;94.66
24336;BME280;33098;52.400;16.880;2022-09-28T07:07:12;98943.14;;;9.85;94.74
24336;BME280;33098;52.400;16.880;2022-09-28T07:09:58;98943.37;;;9.88;94.28
24336;BME280;33098;52.400;16.880;2022-09-28T07:12:42;98943.69;;;9.81;94.12
24336;BME280;33098;52.400;16.880;2022-09-28T07:15:33;98944.61;;;9.88;94.38
24336;BME280;33098;52.400;16.880;2022-09-28T07:18:04;98939.34;;;9.94;94.27
24336;BME280;33098;52.400;16.880;2022-09-28T07:20:33;98944.40;;;9.88;93.87
24336;BME280;33098;52.400;16.880;2022-09-28T07:23:02;98938.94;;;9.95;94.26
24336;BME280;33098;52.400;16.880;2022-09-28T07:25:34;98939.52;;;10.07;94.24
24336;BME280;33098;52.400;16.880;2022-09-28T07:28:23;98935.33;;;10.20;94.37
24336;BME280;33098;52.400;16.880;2022-09-28T07:31:10;98934.15;;;10.32;94.18
24336;BME280;33098;52.400;16.880;2022-09-28T07:33:55;98932.61;;;10.32;93.44
24336;BME280;33098;52.400;16.880;2022-09-28T07:36:30;98933.00;;;10.28;93.21
24336;BME280;33098;52.400;16.880;2022-09-28T07:39:01;98933.11;;;10.34;93.31
24336;BME280;33098;52.400;16.880;2022-09-28T07:41:28;98936.38;;;10.44;93.56
24336;BME280;33098;52.400;16.880;2022-09-28T07:44:03;98940.23;;;10.53;93.39
24336;BME280;33098;52.400;16.880;2022-09-28T07:46:34;98932.94;;;10.65;93.56
24336;BME280;33098;52.400;16.880;2022-09-28T07:49:24;98933.14;;;10.89;93.91
24336;BME280;33098;52.400;16.880;2022-09-28T07:52:01;98931.71;;;11.05;93.32
24336;BME280;33098;52.400;16.880;2022-09-28T07:54:28;98930.65;;;11.08;92.68
24336;BME280;33098;52.400;16.880;2022-09-28T07:57:11;98928.40;;;11.23;92.44
24336;BME280;33098;52.400;16.880;2022-09-28T07:59:53;98928.39;;;11.30;92.19
24336;BME280;33098;52.400;16.880;2022-09-28T08:02:46;98933.61;;;11.42;91.43
24336;BME280;33098;52.400;16.880;2022-09-28T08:05:19;98933.45;;;11.42;91.07
24336;BME280;33098;52.400;16.880;2022-09-28T08:07:47;98938.04;;;11.43;90.00
24336;BME280;33098;52.400;16.880;2022-09-28T08:10:17;98935.25;;;11.34;89.69
24336;BME280;33098;52.400;16.880;2022-09-28T08:13:02;98944.33;;;11.39;89.66
24336;BME280;33098;52.400;16.880;2022-09-28T08:16:01;98942.58;;;11.43;89.73
24336;BME280;33098;52.400;16.880;2022-09-28T08:18:52;98938.36;;;11.46;89.37
24336;BME280;33098;52.400;16.880;2022-09-28T08:21:22;98939.73;;;11.47;89.22
24336;BME280;33098;52.400;16.880;2022-09-28T08:24:08;98939.82;;;11.51;89.16
24336;BME280;33098;52.400;16.880;2022-09-28T08:26:35;98941.98;;;11.64;89.49
24336;BME280;33098;52.400;16.880;2022-09-28T08:29:04;98943.29;;;11.77;89.25
24336;BME280;33098;52.400;16.880;2022-09-28T08:31:52;98937.42;;;11.85;88.89
24336;BME280;33098;52.400;16.880;2022-09-28T08:34:40;98936.27;;;11.86;87.93
24336;BME280;33098;52.400;16.880;2022-09-28T08:37:25;98933.12;;;11.82;87.26
24336;BME280;33098;52.400;16.880;2022-09-28T08:40:18;98929.79;;;11.86;87.71
24336;BME280;33098;52.400;16.880;2022-09-28T08:46:41;98922.55;;;12.13;87.68
24336;BME280;33098;52.400;16.880;2022-09-28T08:49:37;98922.68;;;12.18;87.27
24336;BME280;33098;52.400;16.880;2022-09-28T08:52:33;98921.64;;;12.26;87.03
24336;BME280;33098;52.400;16.880;2022-09-28T08:55:25;98919.02;;;12.34;86.12
24336;BME280;33098;52.400;16.880;2022-09-28T09:00:44;98919.21;;;12.40;85.25
24336;BME280;33098;52.400;16.880;2022-09-28T09:03:37;98918.95;;;12.47;85.30
24336;BME280;33098;52.400;16.880;2022-09-28T09:18:20;98898.54;;;12.34;83.55
24336;BME280;33098;52.400;16.880;2022-09-28T09:21:15;98899.45;;;12.42;83.71
24336;BME280;33098;52.400;16.880;2022-09-28T09:24:02;98893.50;;;12.55;83.98
24336;BME280;33098;52.400;16.880;2022-09-28T09:26:40;98890.66;;;12.68;83.62
24336;BME280;33098;52.400;16.880;2022-09-28T09:29:33;98892.26;;;12.73;82.63
24336;BME280;33098;52.400;16.880;2022-09-28T09:35:44;98894.89;;;12.80;82.06
24336;BME280;33098;52.400;16.880;2022-09-28T09:47:58;98888.84;;;13.40;81.31
24336;BME280;33098;52.400;16.880;2022-09-28T09:50:32;98889.71;;;13.60;81.12
24336;BME280;33098;52.400;16.880;2022-09-28T09:55:39;98886.58;;;13.73;79.32
24336;BME280;33098;52.400;16.880;2022-09-28T09:58:52;98887.05;;;13.84;79.05
24336;BME280;33098;52.400;16.880;2022-09-28T10:01:37;98884.68;;;14.03;78.83
24336;BME280;33098;52.400;16.880;2022-09-28T10:04:27;98891.34;;;14.26;77.85
24336;BME280;33098;52.400;16.880;2022-09-28T10:07:03;98892.02;;;14.32;76.86
24336;BME280;33098;52.400;16.880;2022-09-28T10:09:37;98894.45;;;14.47;76.69
24336;BME280;33098;52.400;16.880;2022-09-28T10:12:22;98881.67;;;14.57;75.46
24336;BME280;33098;52.400;16.880;2022-09-28T10:14:49;98882.18;;;14.68;74.89
24336;BME280;33098;52.400;16.880;2022-09-28T10:17:19;98882.92;;;14.81;75.45
24336;BME280;33098;52.400;16.880;2022-09-28T10:20:12;98886.48;;;15.02;74.69
24336;BME280;33098;52.400;16.880;2022-09-28T10:22:41;98884.52;;;15.23;74.55
24336;BME280;33098;52.400;16.880;2022-09-28T10:25:18;98876.24;;;15.43;74.72
24336;BME280;33098;52.400;16.880;2022-09-28T10:27:47;98878.17;;;15.60;74.03
24336;BME280;33098;52.400;16.880;2022-09-28T10:30:24;98879.72;;;15.66;73.72
24336;BME280;33098;52.400;16.880;2022-09-28T10:32:52;98875.02;;;15.63;72.56
24336;BME280;33098;52.400;16.880;2022-09-28T10:38:03;98870.67;;;15.28;70.37
24336;BME280;33098;52.400;16.880;2022-09-28T10:40:50;98870.15;;;15.13;70.79
24336;BME280;33098;52.400;16.880;2022-09-28T10:43:54;98870.66;;;15.10;71.52
24336;BME280;33098;52.400;16.880;2022-09-28T10:47:02;98872.70;;;15.20;71.67
24336;BME280;33098;52.400;16.880;2022-09-28T10:49:40;98867.46;;;15.32;71.18
24336;BME280;33098;52.400;16.880;2022-09-28T10:52:40;98868.86;;;15.44;70.08
24336;BME280;33098;52.400;16.880;2022-09-28T10:55:30;98866.30;;;15.57;70.76
24336;BME280;33098;52.400;16.880;2022-09-28T10:58:21;98867.83;;;15.75;70.42
24336;BME280;33098;52.400;16.880;2022-09-28T11:00:49;98870.73;;;15.80;69.95
24336;BME280;33098;52.400;16.880;2022-09-28T11:03:26;98871.41;;;15.81;69.28
24336;BME280;33098;52.400;16.880;2022-09-28T11:06:02;98869.40;;;15.71;68.72
24336;BME280;33098;52.400;16.880;2022-09-28T11:08:36;98867.50;;;15.62;67.87
24336;BME280;33098;52.400;16.880;2022-09-28T11:11:15;98867.40;;;15.51;67.47
24336;BME280;33098;52.400;16.880;2022-09-28T11:13:50;98868.45;;;15.35;66.89
24336;BME280;33098;52.400;16.880;2022-09-28T11:16:33;98868.52;;;15.26;67.71
24336;BME280;33098;52.400;16.880;2022-09-28T11:19:23;98867.73;;;15.30;68.21
24336;BME280;33098;52.400;16.880;2022-09-28T11:21:51;98873.70;;;15.37;68.03
24336;BME280;33098;52.400;16.880;2022-09-28T11:24:22;98871.11;;;15.33;68.16
24336;BME280;33098;52.400;16.880;2022-09-28T11:26:54;98869.90;;;15.37;67.96
24336;BME280;33098;52.400;16.880;2022-09-28T11:29:44;98867.86;;;15.39;67.65
24336;BME280;33098;52.400;16.880;2022-09-28T11:32:27;98868.44;;;15.34;67.50
24336;BME280;33098;52.400;16.880;2022-09-28T11:35:47;98873.21;;;15.42;67.72
24336;BME280;33098;52.400;16.880;2022-09-28T11:41:46;98875.52;;;15.23;66.77
24336;BME280;33098;52.400;16.880;2022-09-28T11:44:44;98871.68;;;15.18;67.32
24336;BME280;33098;52.400;16.880;2022-09-28T11:49:52;98867.06;;;15.41;67.59
24336;BME280;33098;52.400;16.880;2022-09-28T11:57:44;98863.11;;;15.64;67.46
24336;BME280;33098;52.400;16.880;2022-09-28T12:00:17;98865.75;;;15.73;66.82
24336;BME280;33098;52.400;16.880;2022-09-28T12:02:58;98860.13;;;15.67;66.40
24336;BME280;33098;52.400;16.880;2022-09-28T12:05:45;98861.20;;;15.67;65.52
24336;BME280;33098;52.400;16.880;2022-09-28T12:09:04;98858.52;;;15.52;65.14
24336;BME280;33098;52.400;16.880;2022-09-28T12:11:24;98858.94;;;15.40;64.96
24336;BME280;33098;52.400;16.880;2022-09-28T12:14:33;98858.15;;;15.32;65.35
24336;BME280;33098;52.400;16.880;2022-09-28T12:19:54;98853.55;;;15.35;65.73
24336;BME280;33098;52.400;16.880;2022-09-28T12:22:31;98853.87;;;15.29;65.94
24336;BME280;33098;52.400;16.880;2022-09-28T12:24:59;98852.88;;;15.29;65.82
24336;BME280;33098;52.400;16.880;2022-09-28T12:27:43;98848.35;;;15.22;65.92
24336;BME280;33098;52.400;16.880;2022-09-28T12:30:14;98848.28;;;15.15;65.84
24336;BME280;33098;52.400;16.880;2022-09-28T12:38:51;98846.39;;;14.90;65.13
24336;BME280;33098;52.400;16.880;2022-09-28T12:47:07;98848.02;;;14.78;66.04
24336;BME280;33098;52.400;16.880;2022-09-28T13:01:52;98844.39;;;14.68;66.23
24336;BME280;33098;52.400;16.880;2022-09-28T13:07:37;98844.00;;;14.66;65.91
24336;BME280;33098;52.400;16.880;2022-09-28T13:10:20;98844.94;;;14.63;66.11
24336;BME280;33098;52.400;16.880;2022-09-28T13:18:33;98842.78;;;14.63;66.85
24336;BME280;33098;52.400;16.880;2022-09-28T13:21:12;98841.69;;;14.56;66.79
24336;BME280;33098;52.400;16.880;2022-09-28T13:23:45;98839.44;;;14.53;67.45
24336;BME280;33098;52.400;16.880;2022-09-28T13:28:51;98835.12;;;14.57;68.25
24336;BME280;33098;52.400;16.880;2022-09-28T13:31:23;98835.48;;;14.52;68.46
24336;BME280;33098;52.400;16.880;2022-09-28T13:33:56;98836.02;;;14.41;68.63
24336;BME280;33098;52.400;16.880;2022-09-28T13:38:52;98831.25;;;14.23;69.36
24336;BME280;33098;52.400;16.880;2022-09-28T13:41:34;98828.61;;;14.26;69.97
24336;BME280;33098;52.400;16.880;2022-09-28T13:47:04;98827.40;;;14.41;70.83
24336;BME280;33098;52.400;16.880;2022-09-28T13:52:44;98831.00;;;14.42;71.22
24336;BME280;33098;52.400;16.880;2022-09-28T13:58:05;98834.37;;;14.29;71.99
24336;BME280;33098;52.400;16.880;2022-09-28T14:00:48;98842.81;;;14.03;71.55
24336;BME280;33098;52.400;16.880;2022-09-28T14:03:51;98845.19;;;13.69;71.57
24336;BME280;33098;52.400;16.880;2022-09-28T14:06:22;98848.69;;;13.28;71.96
24336;BME280;33098;52.400;16.880;2022-09-28T14:12:00;98863.42;;;12.68;73.72
24336;BME280;33098;52.400;16.880;2022-09-28T14:14:50;98868.23;;;12.54;74.14
24336;BME280;33098;52.400;16.880;2022-09-28T14:20:13;98880.37;;;12.26;75.73
24336;BME280;33098;52.400;16.880;2022-09-28T14:25:21;98875.30;;;11.84;77.50
24336;BME280;33098;52.400;16.880;2022-09-28T14:30:54;98883.73;;;11.74;78.96
24336;BME280;33098;52.400;16.880;2022-09-28T14:33:29;98888.37;;;11.57;79.42
24336;BME280;33098;52.400;16.880;2022-09-28T14:36:04;98890.55;;;11.42;79.81
24336;BME280;33098;52.400;16.880;2022-09-28T14:38:48;98890.23;;;11.29;80.03
24336;BME280;33098;52.400;16.880;2022-09-28T14:41:37;98889.96;;;11.25;80.69
24336;BME280;33098;52.400;16.880;2022-09-28T14:44:10;98891.66;;;11.14;80.97
24336;BME280;33098;52.400;16.880;2022-09-28T14:46:43;98883.21;;;11.05;81.40
24336;BME280;33098;52.400;16.880;2022-09-28T14:57:25;98877.53;;;10.98;83.23
24336;BME280;33098;52.400;16.880;2022-09-28T14:59:58;98873.43;;;11.05;83.15
24336;BME280;33098;52.400;16.880;2022-09-28T15:02:30;98874.85;;;11.02;83.29
24336;BME280;33098;52.400;16.880;2022-09-28T15:05:26;98876.41;;;10.97;83.38
24336;BME280;33098;52.400;16.880;2022-09-28T15:07:54;98876.53;;;10.96;83.53
24336;BME280;33098;52.400;16.880;2022-09-28T15:10:32;98868.46;;;11.05;83.92
24336;BME280;33098;52.400;16.880;2022-09-28T15:13:02;98869.30;;;11.19;84.21
24336;BME280;33098;52.400;16.880;2022-09-28T15:15:37;98863.59;;;11.33;84.46
24336;BME280;33098;52.400;16.880;2022-09-28T15:21:06;98859.90;;;11.44;84.72
24336;BME280;33098;52.400;16.880;2022-09-28T15:23:35;98857.15;;;11.37;84.53
24336;BME280;33098;52.400;16.880;2022-09-28T15:26:04;98864.70;;;11.39;84.93
24336;BME280;33098;52.400;16.880;2022-09-28T15:28:43;98867.38;;;11.42;84.98
24336;BME280;33098;52.400;16.880;2022-09-28T15:31:19;98866.58;;;11.47;85.00
24336;BME280;33098;52.400;16.880;2022-09-28T15:33:47;98872.31;;;11.48;84.95
24336;BME280;33098;52.400;16.880;2022-09-28T15:36:43;98873.38;;;11.34;84.79
24336;BME280;33098;52.400;16.880;2022-09-28T15:42:15;98871.96;;;11.17;85.07
24336;BME280;33098;52.400;16.880;2022-09-28T15:47:35;98872.27;;;11.18;85.33
24336;BME280;33098;52.400;16.880;2022-09-28T15:50:18;98875.20;;;11.12;85.69
24336;BME280;33098;52.400;16.880;2022-09-28T15:52:58;98873.68;;;11.10;85.96
24336;BME280;33098;52.400;16.880;2022-09-28T15:55:41;98878.03;;;11.09;86.37
24336;BME280;33098;52.400;16.880;2022-09-28T15:58:17;98875.14;;;11.03;86.27
24336;BME280;33098;52.400;16.880;2022-09-28T16:00:48;98879.64;;;11.02;86.51
24336;BME280;33098;52.400;16.880;2022-09-28T16:05:50;98876.13;;;11.22;87.46
24336;BME280;33098;52.400;16.880;2022-09-28T16:08:36;98877.64;;;11.24;87.59
24336;BME280;33098;52.400;16.880;2022-09-28T16:11:18;98879.21;;;11.33;88.08
24336;BME280;33098;52.400;16.880;2022-09-28T16:14:05;98883.79;;;11.47;88.39
24336;BME280;33098;52.400;16.880;2022-09-28T16:16:47;98886.20;;;11.52;88.41
24336;BME280;33098;52.400;16.880;2022-09-28T16:19:29;98889.92;;;11.55;88.16
24336;BME280;33098;52.400;16.880;2022-09-28T16:22:03;98895.76;;;11.54;88.45
24336;BME280;33098;52.400;16.880;2022-09-28T16:24:35;98891.52;;;11.39;88.47
24336;BME280;33098;52.400;16.880;2022-09-28T16:27:27;98892.67;;;11.34;88.77